createdAt,value
2022-12-12T00:00:41.730Z,77205.13
2022-12-12T00:03:26.468Z,77197.03
2022-12-12T00:05:55.212Z,77197.03
2022-12-12T00:08:22.145Z,77205.13
2022-12-12T00:10:49.440Z,77199.06
2022-12-12T00:13:16.302Z,77197.03
2022-12-12T00:15:43.449Z,77201.06
2022-12-12T00:18:10.301Z,77188.91
2022-12-12T00:20:37.488Z,77188.91
2022-12-12T00:23:04.698Z,77176.75
2022-12-12T00:25:32.167Z,77195.00
2022-12-12T00:28:00.533Z,77184.84
2022-12-12T00:30:27.725Z,77188.91
2022-12-12T00:32:54.517Z,77195.00
2022-12-12T00:35:21.966Z,77192.97
2022-12-12T00:37:49.125Z,77192.97
2022-12-12T00:40:16.339Z,77192.97
2022-12-12T00:42:43.165Z,77184.84
2022-12-12T00:45:11.261Z,77184.84
2022-12-12T00:47:38.282Z,77178.78
2022-12-12T00:50:05.940Z,77172.69
2022-12-12T00:52:32.810Z,77190.94
2022-12-12T00:54:59.892Z,77176.75
2022-12-12T00:57:26.847Z,77180.81
2022-12-12T00:59:53.995Z,77172.69
2022-12-12T01:02:24.961Z,77174.72
2022-12-12T01:04:55.362Z,77164.59
2022-12-12T01:07:22.262Z,77174.72
2022-12-12T01:09:49.445Z,77180.81
2022-12-12T01:12:16.222Z,77172.69
2022-12-12T01:14:43.507Z,77168.63
2022-12-12T01:17:10.398Z,77168.63
2022-12-12T01:19:37.531Z,77168.63
2022-12-12T01:22:04.372Z,77160.53
2022-12-12T01:24:31.628Z,77160.53
2022-12-12T01:26:58.486Z,77148.38
2022-12-12T01:29:25.582Z,77148.38
2022-12-12T01:31:53.047Z,77148.38
2022-12-12T01:34:20.268Z,77148.38
2022-12-12T01:36:47.255Z,77140.25
2022-12-12T01:39:14.487Z,77128.09
2022-12-12T01:41:43.206Z,77140.25
2022-12-12T01:44:59.350Z,77136.19
2022-12-12T01:47:26.514Z,77132.16
2022-12-12T01:50:04.140Z,77132.16
2022-12-12T01:52:43.654Z,77130.13
2022-12-12T01:55:17.506Z,77128.09
2022-12-12T01:57:49.607Z,77134.16
2022-12-12T02:00:17.042Z,77130.13
2022-12-12T02:02:46.257Z,77126.06
2022-12-12T02:05:37.258Z,77124.03
2022-12-12T02:08:06.300Z,77119.97
2022-12-12T02:10:33.899Z,77132.16
2022-12-12T02:13:05.927Z,77128.09
2022-12-12T02:15:43.092Z,77134.16
2022-12-12T02:18:43.517Z,77124.03
2022-12-12T02:21:25.879Z,77128.09
2022-12-12T02:24:15.750Z,77128.09
2022-12-12T02:27:32.071Z,77128.09
2022-12-12T02:30:16.554Z,77119.97
2022-12-12T02:32:50.840Z,77119.97
2022-12-12T02:35:51.755Z,77122.00
2022-12-12T02:38:34.113Z,77132.16
2022-12-12T02:41:29.278Z,77128.09
2022-12-12T02:44:17.260Z,77128.09
2022-12-12T02:46:52.094Z,77124.03
2022-12-12T02:49:28.783Z,77140.25
2022-12-12T02:51:57.847Z,77128.09
2022-12-12T02:54:25.313Z,77148.38
2022-12-12T02:56:58.313Z,77132.16
2022-12-12T02:59:33.702Z,77132.16
2022-12-12T03:02:25.413Z,77126.06
2022-12-12T03:05:26.154Z,77124.03
2022-12-12T03:08:23.862Z,77115.94
2022-12-12T03:11:05.505Z,77111.88
2022-12-12T03:13:55.219Z,77103.75
2022-12-12T03:16:44.856Z,77095.66
2022-12-12T03:19:17.595Z,77099.72
2022-12-12T03:22:06.419Z,77101.72
2022-12-12T03:24:47.379Z,77107.81
2022-12-12T03:27:40.271Z,77103.75
2022-12-12T03:30:11.603Z,77099.72
2022-12-12T03:33:17.701Z,77091.59
2022-12-12T03:35:49.694Z,77091.59
2022-12-12T03:38:25.613Z,77085.50
2022-12-12T03:41:02.793Z,77075.38
2022-12-12T03:43:33.968Z,77071.31
2022-12-12T03:46:17.389Z,77067.28
2022-12-12T03:49:11.037Z,77071.31
2022-12-12T03:51:43.349Z,77075.38
2022-12-12T03:55:24.333Z,77067.28
2022-12-12T03:58:00.352Z,77059.16
2022-12-12T04:00:31.885Z,77051.06
2022-12-12T04:03:03.854Z,77047.00
2022-12-12T04:05:39.209Z,77042.94
2022-12-12T04:08:13.459Z,77038.88
2022-12-12T04:11:10.231Z,77038.88
2022-12-12T04:14:11.724Z,77036.84
2022-12-12T04:16:42.250Z,77026.72
2022-12-12T04:19:42.203Z,77034.84
2022-12-12T04:22:38.404Z,77022.66
2022-12-12T04:25:19.915Z,77024.69
2022-12-12T04:27:51.957Z,77030.78
2022-12-12T04:30:18.991Z,77022.66
2022-12-12T04:32:46.000Z,77014.56
2022-12-12T04:35:30.793Z,77002.41
2022-12-12T04:38:02.416Z,77006.44
2022-12-12T04:40:33.664Z,77018.63
2022-12-12T04:43:08.973Z,77006.44
2022-12-12T04:45:41.613Z,77006.44
2022-12-12T04:48:14.781Z,76998.34
2022-12-12T04:50:44.886Z,76994.28
2022-12-12T04:53:18.648Z,76986.16
2022-12-12T04:55:53.781Z,76994.28
2022-12-12T04:58:21.441Z,76982.13
2022-12-12T05:00:56.897Z,76974.00
2022-12-12T05:03:43.786Z,76982.13
2022-12-12T05:06:14.872Z,76963.88
2022-12-12T05:08:46.700Z,76949.69
2022-12-12T05:11:15.556Z,76955.75
2022-12-12T05:13:43.253Z,76957.78
2022-12-12T05:16:35.341Z,76953.75
2022-12-12T05:19:03.342Z,76945.63
2022-12-12T05:21:30.216Z,76945.63
2022-12-12T05:23:57.273Z,76925.34
2022-12-12T05:26:29.341Z,76929.41
2022-12-12T05:28:59.972Z,76933.47
2022-12-12T05:31:30.624Z,76921.31
2022-12-12T05:33:57.744Z,76927.38
2022-12-12T05:36:24.553Z,76913.19
2022-12-12T05:38:52.063Z,76917.25
2022-12-12T05:41:19.108Z,76905.09
2022-12-12T05:43:46.497Z,76896.97
2022-12-12T05:46:14.027Z,76896.97
2022-12-12T05:48:41.557Z,76901.03
2022-12-12T05:51:08.419Z,76888.88
2022-12-12T05:53:42.495Z,76890.88
2022-12-12T05:56:11.572Z,76890.88
2022-12-12T05:58:40.369Z,76880.75
2022-12-12T06:01:07.721Z,76878.72
2022-12-12T06:03:35.308Z,76876.69
2022-12-12T06:06:02.193Z,76878.72
2022-12-12T06:08:29.741Z,76876.69
2022-12-12T06:10:56.863Z,76880.75
2022-12-12T06:13:24.112Z,76876.69
2022-12-12T06:15:51.083Z,76880.75
2022-12-12T06:18:18.415Z,76868.59
2022-12-12T06:20:45.270Z,76868.59
2022-12-12T06:23:12.398Z,76870.63
2022-12-12T06:25:39.430Z,76864.53
2022-12-12T06:28:06.864Z,76852.38
2022-12-12T06:30:34.112Z,76864.53
2022-12-12T06:33:01.514Z,76858.44
2022-12-12T06:35:28.408Z,76850.34
2022-12-12T06:37:55.613Z,76848.31
2022-12-12T06:40:22.638Z,76848.31
2022-12-12T06:42:49.839Z,76840.22
2022-12-12T06:45:17.269Z,76836.16
2022-12-12T06:47:44.733Z,76840.22
2022-12-12T06:50:11.918Z,76840.22
2022-12-12T06:52:40.406Z,76844.25
2022-12-12T06:55:07.663Z,76828.03
2022-12-12T06:57:35.024Z,76824.00
2022-12-12T07:00:02.611Z,76821.97
2022-12-12T07:02:30.489Z,76811.81
2022-12-12T07:04:58.450Z,76819.94
2022-12-12T07:07:25.636Z,76819.94
2022-12-12T07:09:52.608Z,76813.84
2022-12-12T07:12:19.686Z,76815.88
2022-12-12T07:14:46.694Z,76815.88
2022-12-12T07:17:13.765Z,76811.81
2022-12-12T07:19:40.724Z,76807.78
2022-12-12T07:22:10.349Z,76807.78
2022-12-12T07:24:38.122Z,76811.81
2022-12-12T07:27:06.432Z,76803.72
2022-12-12T07:29:34.073Z,76803.72
2022-12-12T07:32:01.306Z,76787.50
2022-12-12T07:34:31.515Z,76791.56
2022-12-12T07:37:02.801Z,76783.44
2022-12-12T07:39:32.176Z,76779.38
2022-12-12T07:42:00.283Z,76781.41
2022-12-12T07:44:28.018Z,76775.34
2022-12-12T07:46:59.466Z,76771.28
2022-12-12T07:49:29.575Z,76771.28
2022-12-12T07:51:57.290Z,76779.38
2022-12-12T07:54:24.432Z,76761.16
2022-12-12T07:56:52.158Z,76763.16
2022-12-12T07:59:19.265Z,76775.34
2022-12-12T08:01:47.077Z,76767.22
2022-12-12T08:04:14.404Z,76755.06
2022-12-12T08:06:42.132Z,76757.09
2022-12-12T08:09:09.510Z,76734.78
2022-12-12T08:11:39.801Z,76746.97
2022-12-12T08:14:13.125Z,76732.75
2022-12-12T08:16:41.416Z,76734.78
2022-12-12T08:19:08.627Z,76732.75
2022-12-12T08:21:36.291Z,76722.63
2022-12-12T08:24:03.755Z,76726.69
2022-12-12T08:26:32.222Z,76728.72
2022-12-12T08:28:59.690Z,76704.38
2022-12-12T08:31:28.543Z,76714.53
2022-12-12T08:33:56.852Z,76708.44
2022-12-12T08:36:27.343Z,76706.41
2022-12-12T08:38:54.420Z,76704.38
2022-12-12T08:41:23.621Z,76706.41
2022-12-12T08:43:51.196Z,76698.31
2022-12-12T08:46:20.059Z,76698.31
2022-12-12T08:48:48.210Z,76694.25
2022-12-12T08:51:18.018Z,76678.03
2022-12-12T08:53:49.744Z,76686.13
2022-12-12T08:56:18.530Z,76682.09
2022-12-12T08:58:46.674Z,76682.09
2022-12-12T09:01:18.474Z,76669.94
2022-12-12T09:03:46.077Z,76665.88
2022-12-12T09:06:14.724Z,76661.81
2022-12-12T09:08:42.452Z,76645.59
2022-12-12T09:11:10.804Z,76643.56
2022-12-12T09:13:38.534Z,76639.53
2022-12-12T09:16:07.140Z,76637.50
2022-12-12T09:18:34.704Z,76645.59
2022-12-12T09:21:02.092Z,76637.50
2022-12-12T09:23:29.270Z,76631.41
2022-12-12T09:25:56.826Z,76625.31
2022-12-12T09:28:26.076Z,76629.38
2022-12-12T09:30:53.383Z,76633.44
2022-12-12T09:33:20.516Z,76621.28
2022-12-12T09:35:47.730Z,76633.44
2022-12-12T09:38:15.281Z,76633.44
2022-12-12T09:41:02.784Z,76633.44
2022-12-12T09:43:37.036Z,76637.50
2022-12-12T09:46:14.487Z,76649.66
2022-12-12T09:48:46.652Z,76645.59
2022-12-12T09:51:14.320Z,76653.72
2022-12-12T09:53:45.446Z,76653.72
2022-12-12T09:56:21.567Z,76649.66
2022-12-12T09:59:29.646Z,76637.50
2022-12-12T10:02:02.852Z,76629.38
2022-12-12T10:04:42.483Z,76629.38
2022-12-12T10:07:19.420Z,76629.38
2022-12-12T10:09:52.166Z,76625.31
2022-12-12T10:12:22.007Z,76619.25
2022-12-12T10:14:54.526Z,76605.06
2022-12-12T10:17:43.065Z,76601.00
2022-12-12T10:20:24.409Z,76613.16
2022-12-12T10:23:09.937Z,76609.09
2022-12-12T10:25:44.160Z,76601.00
2022-12-12T10:28:15.275Z,76596.94
2022-12-12T10:31:09.887Z,76601.00
2022-12-12T10:34:05.571Z,76592.91
2022-12-12T10:36:58.586Z,76586.81
2022-12-12T10:40:01.639Z,76584.78
2022-12-12T10:42:48.468Z,76592.91
2022-12-12T10:45:41.728Z,76592.91
2022-12-12T10:48:08.699Z,76601.00
2022-12-12T10:50:42.360Z,76588.84
2022-12-12T10:53:11.842Z,76574.66
2022-12-12T10:56:00.724Z,76564.50
2022-12-12T10:58:39.621Z,76550.31
2022-12-12T11:01:32.902Z,76528.03
2022-12-12T11:04:08.628Z,76523.97
2022-12-12T11:06:38.521Z,76538.16
2022-12-12T11:09:18.176Z,76548.31
2022-12-12T11:12:04.727Z,76532.09
2022-12-12T11:14:41.186Z,76564.50
2022-12-12T11:17:30.983Z,76548.31
2022-12-12T11:20:01.539Z,76556.41
2022-12-12T11:22:33.471Z,76564.50
2022-12-12T11:25:00.969Z,76564.50
2022-12-12T11:27:35.672Z,76568.56
2022-12-12T11:30:05.894Z,76580.72
2022-12-12T11:32:43.140Z,76588.84
2022-12-12T11:35:47.520Z,76580.72
2022-12-12T11:38:28.241Z,76580.72
2022-12-12T11:41:04.691Z,76572.63
2022-12-12T11:43:54.338Z,76584.78
2022-12-12T11:46:27.852Z,76596.94
2022-12-12T11:48:59.306Z,76596.94
2022-12-12T11:51:39.814Z,76588.84
2022-12-12T11:54:13.162Z,76588.84
2022-12-12T11:57:04.736Z,76580.72
2022-12-12T11:59:37.613Z,76594.91
2022-12-12T12:02:42.656Z,76592.91
2022-12-12T12:05:25.119Z,76605.06
2022-12-12T12:08:28.971Z,76605.06
2022-12-12T12:11:02.053Z,76613.16
2022-12-12T12:13:39.380Z,76625.31
2022-12-12T12:16:21.685Z,76633.44
2022-12-12T12:19:25.924Z,76637.50
2022-12-12T12:22:38.065Z,76645.59
2022-12-12T12:25:30.298Z,76645.59
2022-12-12T12:27:57.526Z,76647.63
2022-12-12T12:30:48.931Z,76661.81
2022-12-12T12:33:30.184Z,76661.81
2022-12-12T12:36:06.676Z,76649.66
2022-12-12T12:38:51.731Z,76665.88
2022-12-12T12:41:18.533Z,76665.88
2022-12-12T12:43:54.870Z,76665.88
2022-12-12T12:46:28.312Z,76673.97
2022-12-12T12:49:03.129Z,76678.03
2022-12-12T12:51:45.556Z,76710.47
2022-12-12T12:54:56.963Z,76686.13
2022-12-12T12:57:39.065Z,76688.16
2022-12-12T13:00:15.943Z,76690.19
2022-12-12T13:03:06.240Z,76694.25
2022-12-12T13:05:44.045Z,76698.31
2022-12-12T13:08:22.982Z,76706.41
2022-12-12T13:10:55.301Z,76706.41
2022-12-12T13:13:31.649Z,76710.47
2022-12-12T13:16:05.129Z,76720.59
2022-12-12T13:18:45.012Z,76712.50
2022-12-12T13:21:30.350Z,76706.41
2022-12-12T13:24:25.404Z,76710.47
2022-12-12T13:27:15.419Z,76722.63
2022-12-12T13:29:48.832Z,76722.63
2022-12-12T13:32:47.132Z,76722.63
2022-12-12T13:35:34.486Z,76728.72
2022-12-12T13:38:03.216Z,76730.75
2022-12-12T13:40:43.064Z,76730.75
2022-12-12T13:43:38.028Z,76730.75
2022-12-12T13:46:29.263Z,76738.84
2022-12-12T13:49:03.489Z,76726.69
2022-12-12T13:51:33.718Z,76738.84
2022-12-12T13:54:24.350Z,76744.94
2022-12-12T13:56:57.624Z,76753.03
2022-12-12T13:59:27.667Z,76753.03
2022-12-12T14:02:03.516Z,76746.97
2022-12-12T14:04:36.812Z,76751.00
2022-12-12T14:07:12.690Z,76751.00
2022-12-12T14:10:18.500Z,76755.06
2022-12-12T14:12:46.063Z,76751.00
2022-12-12T14:15:29.789Z,76763.16
2022-12-12T14:17:59.738Z,76759.13
2022-12-12T14:20:29.456Z,76755.06
2022-12-12T14:22:59.263Z,76759.13
2022-12-12T14:25:44.234Z,76759.13
2022-12-12T14:28:23.129Z,76755.06
2022-12-12T14:31:11.691Z,76753.03
2022-12-12T14:34:06.004Z,76753.03
2022-12-12T14:36:36.022Z,76753.03
2022-12-12T14:39:15.050Z,76761.16
2022-12-12T14:41:45.801Z,76755.06
2022-12-12T14:44:36.995Z,76759.13
2022-12-12T14:47:09.332Z,76765.19
2022-12-12T14:49:36.578Z,76751.00
2022-12-12T14:52:04.117Z,76755.06
2022-12-12T14:54:31.630Z,76755.06
2022-12-12T14:56:59.662Z,76755.06
2022-12-12T14:59:41.131Z,76755.06
2022-12-12T15:02:33.840Z,76759.13
2022-12-12T15:05:06.985Z,76755.06
2022-12-12T15:07:41.259Z,76769.25
2022-12-12T15:10:24.501Z,76759.13
2022-12-12T15:12:51.717Z,76763.16
2022-12-12T15:15:36.872Z,76759.13
2022-12-12T15:18:04.192Z,76767.22
2022-12-12T15:20:32.386Z,76755.06
2022-12-12T15:23:05.879Z,76755.06
2022-12-12T15:25:47.212Z,76763.16
2022-12-12T15:28:20.293Z,76763.16
2022-12-12T15:30:51.886Z,76763.16
2022-12-12T15:33:24.492Z,76755.06
2022-12-12T15:35:59.654Z,76755.06
2022-12-12T15:38:29.261Z,76751.00
2022-12-12T15:40:59.157Z,76755.06
2022-12-12T15:43:29.239Z,76755.06
2022-12-12T15:45:58.530Z,76746.97
2022-12-12T15:48:26.715Z,76751.00
2022-12-12T15:51:04.424Z,76742.91
2022-12-12T15:53:37.751Z,76746.97
2022-12-12T15:56:11.784Z,76757.09
2022-12-12T15:59:00.866Z,76763.16
2022-12-12T16:01:29.956Z,76763.16
2022-12-12T16:04:03.968Z,76757.09
2022-12-12T16:06:42.209Z,76763.16
2022-12-12T16:09:12.134Z,76767.22
2022-12-12T16:11:52.391Z,76755.06
2022-12-12T16:14:42.768Z,76767.22
2022-12-12T16:17:16.152Z,76767.22
2022-12-12T16:19:55.664Z,76771.28
2022-12-12T16:22:36.292Z,76775.34
2022-12-12T16:25:27.564Z,76773.31
2022-12-12T16:28:02.631Z,76775.34
2022-12-12T16:30:29.953Z,76777.38
2022-12-12T16:32:56.959Z,76775.34
2022-12-12T16:35:25.150Z,76783.44
2022-12-12T16:37:55.111Z,76787.50
2022-12-12T16:40:22.470Z,76783.44
2022-12-12T16:43:12.032Z,76787.50
2022-12-12T16:45:40.468Z,76791.56
2022-12-12T16:48:27.693Z,76821.97
2022-12-12T16:51:01.780Z,76799.66
2022-12-12T16:53:28.689Z,76803.72
2022-12-12T16:55:56.131Z,76797.63
2022-12-12T16:58:23.082Z,76807.78
2022-12-12T17:00:55.199Z,76815.88
2022-12-12T17:03:23.631Z,76819.94
2022-12-12T17:05:51.827Z,76828.03
2022-12-12T17:08:19.997Z,76819.94
2022-12-12T17:10:49.255Z,76824.00
2022-12-12T17:13:26.709Z,76826.00
2022-12-12T17:15:55.582Z,76834.13
2022-12-12T17:18:23.164Z,76828.03
2022-12-12T17:20:50.590Z,76836.16
2022-12-12T17:23:28.480Z,76836.16
2022-12-12T17:26:01.072Z,76836.16
2022-12-12T17:28:32.411Z,76832.09
2022-12-12T17:31:00.265Z,76842.22
2022-12-12T17:33:27.264Z,76844.25
2022-12-12T17:36:02.777Z,76850.34
2022-12-12T17:38:30.982Z,76856.44
2022-12-12T17:40:58.375Z,76852.38
2022-12-12T17:43:25.900Z,76848.31
2022-12-12T17:46:07.591Z,76852.38
2022-12-12T17:48:35.582Z,76856.44
2022-12-12T17:51:05.657Z,76860.47
2022-12-12T17:53:38.406Z,76880.75
2022-12-12T17:56:08.566Z,76864.53
2022-12-12T17:58:37.229Z,76866.56
2022-12-12T18:01:22.888Z,76864.53
2022-12-12T18:03:50.605Z,76868.59
2022-12-12T18:06:19.610Z,76876.69
2022-12-12T18:08:47.108Z,76872.66
2022-12-12T18:11:17.925Z,76872.66
2022-12-12T18:13:45.736Z,76880.75
2022-12-12T18:16:13.151Z,76876.69
2022-12-12T18:18:40.697Z,76880.75
2022-12-12T18:21:23.508Z,76878.72
2022-12-12T18:24:01.426Z,76884.81
2022-12-12T18:26:29.229Z,76880.75
2022-12-12T18:29:02.737Z,76884.81
2022-12-12T18:31:31.199Z,76876.69
2022-12-12T18:33:58.471Z,76884.81
2022-12-12T18:36:28.532Z,76884.81
2022-12-12T18:38:57.615Z,76892.91
2022-12-12T18:41:26.315Z,76880.75
2022-12-12T18:43:54.096Z,76896.97
2022-12-12T18:46:24.346Z,76888.88
2022-12-12T18:48:51.235Z,76892.91
2022-12-12T18:51:24.000Z,76896.97
2022-12-12T18:53:52.477Z,76896.97
2022-12-12T18:56:25.765Z,76909.13
2022-12-12T18:58:55.925Z,76917.25
2022-12-12T19:01:26.094Z,76925.34
2022-12-12T19:03:56.818Z,76941.56
2022-12-12T19:06:31.760Z,76939.53
2022-12-12T19:08:58.761Z,76937.53
2022-12-12T19:11:25.970Z,76941.56
2022-12-12T19:13:52.860Z,76953.75
2022-12-12T19:16:20.869Z,76957.78
2022-12-12T19:18:48.378Z,76961.84
2022-12-12T19:21:19.004Z,76978.06
2022-12-12T19:23:46.427Z,76961.84
2022-12-12T19:26:25.280Z,76967.94
2022-12-12T19:28:55.830Z,76978.06
2022-12-12T19:31:24.586Z,76969.94
2022-12-12T19:33:52.369Z,76982.13
2022-12-12T19:36:22.308Z,76978.06
2022-12-12T19:38:50.010Z,76984.16
2022-12-12T19:41:19.108Z,76994.28
2022-12-12T19:43:49.018Z,77006.44
2022-12-12T19:46:20.171Z,76998.34
2022-12-12T19:48:48.138Z,77020.63
2022-12-12T19:51:21.604Z,77014.56
2022-12-12T19:53:55.651Z,77010.50
2022-12-12T19:56:26.133Z,77022.66
2022-12-12T19:58:53.378Z,77018.63
2022-12-12T20:01:23.289Z,77018.63
2022-12-12T20:03:52.837Z,77022.66
2022-12-12T20:06:21.032Z,77018.63
2022-12-12T20:08:48.349Z,77018.63
2022-12-12T20:11:18.506Z,77018.63
2022-12-12T20:13:53.001Z,77036.84
2022-12-12T20:16:23.754Z,77030.78
2022-12-12T20:18:51.081Z,77047.00
2022-12-12T20:21:58.678Z,77042.94
2022-12-12T20:24:10.317Z,77051.06
2022-12-12T20:26:39.432Z,77047.00
2022-12-12T20:29:07.497Z,77049.03
2022-12-12T20:31:38.514Z,77051.06
2022-12-12T20:34:05.896Z,77051.06
2022-12-12T20:36:34.954Z,77044.97
2022-12-12T20:39:06.989Z,77047.00
2022-12-12T20:41:37.941Z,77044.97
2022-12-12T20:44:06.448Z,77044.97
2022-12-12T20:46:39.706Z,77038.88
2022-12-12T20:49:09.442Z,77051.06
2022-12-12T20:54:24.612Z,77047.00
2022-12-12T20:56:56.330Z,77051.06
2022-12-12T20:59:24.044Z,77055.09
2022-12-12T21:01:52.180Z,77063.22
2022-12-12T21:04:19.393Z,77063.22
2022-12-12T21:06:51.318Z,77067.28
2022-12-12T21:09:25.001Z,77063.22
2022-12-12T21:11:55.604Z,77063.22
2022-12-12T21:14:23.114Z,77067.28
2022-12-12T21:16:50.788Z,77075.38
2022-12-12T21:19:19.010Z,77083.50
2022-12-12T21:21:46.486Z,77095.66
2022-12-12T21:24:16.735Z,77103.75
2022-12-12T21:26:45.295Z,77095.66
2022-12-12T21:29:12.651Z,77103.75
2022-12-12T21:31:51.093Z,77103.75
2022-12-12T21:34:21.542Z,77115.94
2022-12-12T21:36:55.922Z,77107.81
2022-12-12T21:39:28.634Z,77113.91
2022-12-12T21:41:56.706Z,77119.97
2022-12-12T21:44:24.221Z,77115.94
2022-12-12T21:46:51.561Z,77126.06
2022-12-12T21:49:27.769Z,77128.09
2022-12-12T21:52:00.850Z,77128.09
2022-12-12T21:54:31.717Z,77136.19
2022-12-12T21:57:00.380Z,77148.38
2022-12-12T21:59:28.115Z,77140.25
2022-12-12T22:01:57.360Z,77136.19
2022-12-12T22:04:25.498Z,77140.25
2022-12-12T22:06:52.912Z,77134.16
2022-12-12T22:09:22.204Z,77140.25
2022-12-12T22:11:52.213Z,77152.41
2022-12-12T22:14:30.060Z,77148.38
2022-12-12T22:16:57.165Z,77160.53
2022-12-12T22:19:24.806Z,77152.41
2022-12-12T22:21:52.004Z,77172.69
2022-12-12T22:24:18.966Z,77184.84
2022-12-12T22:26:48.625Z,77180.81
2022-12-12T22:29:18.624Z,77180.81
2022-12-12T22:31:46.623Z,77180.81
2022-12-12T22:34:19.979Z,77186.88
2022-12-12T22:36:47.828Z,77180.81
2022-12-12T22:39:17.960Z,77188.91
2022-12-12T22:41:45.534Z,77188.91
2022-12-12T22:44:15.725Z,77192.97
2022-12-12T22:46:45.105Z,77201.06
2022-12-12T22:49:18.795Z,77195.00
2022-12-12T22:51:46.943Z,77188.91
2022-12-12T22:54:14.111Z,77192.97
2022-12-12T22:56:42.126Z,77201.06
2022-12-12T22:59:11.420Z,77203.09
2022-12-12T23:01:39.059Z,77209.19
2022-12-12T23:04:06.341Z,77217.28
2022-12-12T23:06:35.890Z,77213.25
2022-12-12T23:09:07.218Z,77213.25
2022-12-12T23:11:35.669Z,77209.19
2022-12-12T23:14:07.697Z,77211.22
2022-12-12T23:16:36.146Z,77211.22
2022-12-12T23:19:05.725Z,77225.41
2022-12-12T23:21:34.125Z,77225.41
2022-12-12T23:24:01.300Z,77229.47
2022-12-12T23:26:30.372Z,77243.66
2022-12-12T23:28:58.781Z,77241.63
2022-12-12T23:31:29.939Z,77249.75
2022-12-12T23:34:03.901Z,77253.78
2022-12-12T23:36:32.215Z,77249.75
2022-12-12T23:39:06.407Z,77265.97
2022-12-12T23:41:35.103Z,77237.56
2022-12-12T23:44:02.902Z,77231.50
2022-12-12T23:46:33.008Z,77211.22
2022-12-12T23:49:02.805Z,77225.41
2022-12-12T23:51:31.828Z,77237.56
2022-12-12T23:54:00.407Z,77247.72
2022-12-12T23:56:28.533Z,77257.84
2022-12-12T23:58:56.611Z,77251.75
